Portada
METAR-TAF:

METAR-TAF

Aeroports :

Valdez, Alaska, Estats Units d'Amèrica

latitud: 61-08N, longitud: 146-16W, altitud: 37 m

Observació

L'informe es va fer fa 35 minuts, a les 06:56 UTC
Vent calma
Temperatura -10°C
Humitat 85%
Pressió 1001 hPa
Visibilitat: 16.1 km
Escasses núvols a una alçada de 2500 ft
Núvols disperses a una alçada de 7000 ft

METAR: PAVD 230656Z 00000KT 10SM FEW025 SCT070 M10/M12 A2957 RMK AO2 SLP012 T11001117

Hora: 22:31 (07:31 UTC)

Pronòstic

L'informe es va fer fa 2 hores i 5 minuts, a les 05:26 UTC
Pronòstic vàlid del 23 a les 06 UTC al 24 a les 06 UTC
Vent 7 kt del Est/Nord-Est
Visibilitat: 10 km
Núvols disperses a una alçada de 7000 ft
A partir de les 23 a les 1600 UTC
Vent 10 kt del Est/Nord-Est amb ràfegues de 20 kt
Visibilitat: 10 km
Núvols disperses a una alçada de 10000 ft

TAF: PAVD 230526Z 2306/2406 06007KT P6SM SCT070 FM231600 07010G20KT P6SM SCT100 AMD LTD TO CLD VIS AND WIND

Observacions i pronòstics meteorològics de més de 4000 aeroports (METAR i TAF).

Les estacions disponibles són els punts grocs i vermells al mapa.

Posi el ratolí al punt desitjat per veure el nom de l'estació.

Feu clic per veure les observacions i els pronòstics meteorològics.

Per canviar el mapa: feu clic els botons verds amb una creu de color negre per apropar; al botó verd amb un guió per allunyar la imatge; o en les fletxes verdes per a mapes adjacents.


METAR-TAF: